Cape Sakura — 7JHZ — position and weather

sailwx.info

Track history (hours):
 
Tides and Currents Weather Stations Pressure Air Temp Water Temp Dewpoint Dewpoint Depression Visibility Wind Speed Wind Dir Waves Ship Positions

Cape Sakura

Last reported at 2015-Jul-30 22:25 UTC. Time now 2015-Aug-02 20:29 UTC.
Position S 26°04' E 154°04'.

Length 292 m; draft 15.3 m.

Type: Cargo ship. MMSI: 432786000.

Date/timePositionNaut miles runAvg speedWind from/ knotsBaromVisibWave heightAir tempDewpointWater temp
2015-Jul-30 22:25S 26°04' E 154°04'6512.9
2015-Jul-30 17:22S 27°10' E 154°05'4712.1
2015-Jul-30 13:28S 27°56' E 153°59'27311.4
2015-Jul-29 13:33S 32°22' E 152°45'1312.6
2015-Jul-29 12:33S 32°33' E 152°37'1313.0
2015-Jul-29 11:33S 32°42' E 152°26'1312.8
2015-Jul-29 10:33S 32°50' E 152°14'1212.4
2015-Jul-29 09:33S 32°54' E 152°00'9 9.4
2015-Jul-29 08:33S 32°55' E 151°49'3 2.9
2015-Jul-29 07:33S 32°53' E 151°46'1 0.5
2015-Jul-29 06:32S 32°53' E 151°45'0 0.0
2015-Jul-29 05:32S 32°53' E 151°45'0 0.0
2015-Jul-29 04:32S 32°53' E 151°45'0 0.0
2015-Jul-29 03:32S 32°53' E 151°45'0 0.0
2015-Jul-29 02:32S 32°53' E 151°45'0 0.0
2015-Jul-29 01:32S 32°53' E 151°45'0 0.0
2015-Jul-29 00:32S 32°53' E 151°45'0 0.0
2015-Jul-28 23:32S 32°53' E 151°45'0 0.0
2015-Jul-28 22:32S 32°53' E 151°45'0 0.0
2015-Jul-28 21:32S 32°53' E 151°45'0 0.0
2015-Jul-28 20:32S 32°53' E 151°45'0 0.0
2015-Jul-28 19:32S 32°53' E 151°45'0 0.0
2015-Jul-28 18:32S 32°53' E 151°45'0 0.0
2015-Jul-28 17:32S 32°53' E 151°45'0 0.0
2015-Jul-28 16:32S 32°53' E 151°45'0 0.0
2015-Jul-28 15:32S 32°53' E 151°45'0 0.0
2015-Jul-28 14:32S 32°53' E 151°45'0 0.0
2015-Jul-28 13:32S 32°53' E 151°45'0 0.0
2015-Jul-28 12:32S 32°53' E 151°45'0 0.0
2015-Jul-28 11:32S 32°53' E 151°45'0 0.0
2015-Jul-28 10:32S 32°53' E 151°45'0 0.0
2015-Jul-28 09:32S 32°53' E 151°45'0 0.0
2015-Jul-28 08:32S 32°53' E 151°45'0 0.0
2015-Jul-28 07:32S 32°53' E 151°45'0 0.0
2015-Jul-28 06:32S 32°53' E 151°45'0 0.0
2015-Jul-28 05:32S 32°53' E 151°45'0 0.0
2015-Jul-28 04:32S 32°53' E 151°45'0 0.0
2015-Jul-28 03:32S 32°53' E 151°45'0 0.0
2015-Jul-28 02:32S 32°53' E 151°45'0 0.0
2015-Jul-28 01:32S 32°53' E 151°45'0 0.0
2015-Jul-28 00:32S 32°53' E 151°45'0 0.0
2015-Jul-27 23:32S 32°53' E 151°45'0 0.0
2015-Jul-27 22:32S 32°53' E 151°45'1 0.6
2015-Jul-27 21:33S 32°53' E 151°46'3 3.2
2015-Jul-27 20:33S 32°55' E 151°49'7 7.0
2015-Jul-27 19:33S 33°01' E 151°53'8 8.1
2015-Jul-27 18:33S 33°08' E 151°48'1110.3
2015-Jul-27 17:30S 33°18' E 151°41'2 0.0
2015-Jul-25 18:27S 33°18' E 151°39'0 0.0
2015-Jul-25 16:06S 33°18' E 151°39'0 0.0
2015-Jul-25 15:06S 33°18' E 151°39'0 0.0
2015-Jul-25 12:27S 33°18' E 151°39'0 0.0
2015-Jul-25 11:33S 33°18' E 151°39'0 0.0
2015-Jul-25 10:27S 33°18' E 151°39'0 0.0
2015-Jul-25 09:27S 33°18' E 151°39'0 0.0
2015-Jul-24 18:21S 33°18' E 151°39'0 0.1
2015-Jul-24 17:18S 33°18' E 151°39'0 0.0
2015-Jul-24 15:21S 33°18' E 151°39'0 0.0
2015-Jul-24 14:33S 33°18' E 151°39'0 0.0
2015-Jul-24 13:33S 33°18' E 151°39'0 0.0
2015-Jul-24 12:30S 33°18' E 151°39'0 0.0
2015-Jul-24 11:27S 33°18' E 151°39'0 0.0
2015-Jul-24 10:33S 33°18' E 151°39'0 0.1
2015-Jul-24 09:33S 33°18' E 151°39'0 0.0
2015-Jul-24 05:21S 33°18' E 151°39'0 0.0
2015-Jul-24 03:09S 33°18' E 151°39'0 0.0
2015-Jul-24 01:27S 33°18' E 151°39'0 0.0
2015-Jul-24 00:30S 33°18' E 151°39'0 0.1
2015-Jul-23 23:33S 33°18' E 151°39'0 0.1
2015-Jul-23 22:33S 33°18' E 151°39'0 0.0
2015-Jul-23 02:15S 33°18' E 151°39'0 0.0
2015-Jul-23 00:33S 33°18' E 151°39'0 0.0
2015-Jul-22 23:33S 33°18' E 151°39'0 0.0
2015-Jul-22 22:21S 33°18' E 151°39'0 0.1
2015-Jul-22 21:33S 33°18' E 151°39'0 0.0
2015-Jul-22 20:33S 33°18' E 151°39'0 0.0
2015-Jul-22 19:33S 33°18' E 151°39'0 0.1
2015-Jul-22 18:33S 33°18' E 151°39'0 0.0
2015-Jul-22 17:33S 33°18' E 151°39'0 0.1
2015-Jul-22 16:33S 33°18' E 151°39'0 0.0
2015-Jul-22 15:33S 33°18' E 151°39'0 0.1
2015-Jul-22 14:33S 33°18' E 151°39'0 0.0
2015-Jul-22 13:15S 33°18' E 151°39'0 0.0
2015-Jul-22 12:33S 33°18' E 151°39'0 0.0
2015-Jul-22 08:21S 33°18' E 151°39'0 0.0
2015-Jul-22 02:21S 33°18' E 151°39'0 0.0
2015-Jul-22 01:21S 33°18' E 151°39'0 0.0
2015-Jul-21 23:21S 33°18' E 151°39'0 0.0
2015-Jul-21 22:33S 33°18' E 151°39'0 0.0
2015-Jul-21 21:24S 33°18' E 151°39'0 0.0
2015-Jul-21 03:27S 33°18' E 151°39'15 7.9
2015-Jul-21 01:33S 33°16' E 151°57'5 5.0
2015-Jul-21 00:32S 33°16' E 152°03'1 0.8
2015-Jul-20 23:32S 33°16' E 152°04'1 0.7
2015-Jul-20 22:32S 33°16' E 152°05'  
Track history (hours):
 
Tides and Currents Weather Stations Pressure Air Temp Water Temp Dewpoint Dewpoint Depression Visibility Wind Speed Wind Dir Waves Ship Positions

Cape Sakura

Last reported at 2015-Jul-30 22:25 UTC. Time now 2015-Aug-02 20:29 UTC.
Position S 26°04' E 154°04'.

Length 292 m; draft 15.3 m.

Type: Cargo ship. MMSI: 432786000.

Date/timePositionNaut miles runAvg speedWind from/ knotsBaromVisibWave heightAir tempDewpointWater temp
2015-Jul-30 22:25S 26°04' E 154°04'6512.9
2015-Jul-30 17:22S 27°10' E 154°05'4712.1
2015-Jul-30 13:28S 27°56' E 153°59'27311.4
2015-Jul-29 13:33S 32°22' E 152°45'1312.6
2015-Jul-29 12:33S 32°33' E 152°37'1313.0
2015-Jul-29 11:33S 32°42' E 152°26'1312.8
2015-Jul-29 10:33S 32°50' E 152°14'1212.4
2015-Jul-29 09:33S 32°54' E 152°00'9 9.4
2015-Jul-29 08:33S 32°55' E 151°49'3 2.9
2015-Jul-29 07:33S 32°53' E 151°46'1 0.5
2015-Jul-29 06:32S 32°53' E 151°45'0 0.0
2015-Jul-29 05:32S 32°53' E 151°45'0 0.0
2015-Jul-29 04:32S 32°53' E 151°45'0 0.0
2015-Jul-29 03:32S 32°53' E 151°45'0 0.0
2015-Jul-29 02:32S 32°53' E 151°45'0 0.0
2015-Jul-29 01:32S 32°53' E 151°45'0 0.0
2015-Jul-29 00:32S 32°53' E 151°45'0 0.0
2015-Jul-28 23:32S 32°53' E 151°45'0 0.0
2015-Jul-28 22:32S 32°53' E 151°45'0 0.0
2015-Jul-28 21:32S 32°53' E 151°45'0 0.0
2015-Jul-28 20:32S 32°53' E 151°45'0 0.0
2015-Jul-28 19:32S 32°53' E 151°45'0 0.0
2015-Jul-28 18:32S 32°53' E 151°45'0 0.0
2015-Jul-28 17:32S 32°53' E 151°45'0 0.0
2015-Jul-28 16:32S 32°53' E 151°45'0 0.0
2015-Jul-28 15:32S 32°53' E 151°45'0 0.0
2015-Jul-28 14:32S 32°53' E 151°45'0 0.0
2015-Jul-28 13:32S 32°53' E 151°45'0 0.0
2015-Jul-28 12:32S 32°53' E 151°45'0 0.0
2015-Jul-28 11:32S 32°53' E 151°45'0 0.0
2015-Jul-28 10:32S 32°53' E 151°45'0 0.0
2015-Jul-28 09:32S 32°53' E 151°45'0 0.0
2015-Jul-28 08:32S 32°53' E 151°45'0 0.0
2015-Jul-28 07:32S 32°53' E 151°45'0 0.0
2015-Jul-28 06:32S 32°53' E 151°45'0 0.0
2015-Jul-28 05:32S 32°53' E 151°45'0 0.0
2015-Jul-28 04:32S 32°53' E 151°45'0 0.0
2015-Jul-28 03:32S 32°53' E 151°45'0 0.0
2015-Jul-28 02:32S 32°53' E 151°45'0 0.0
2015-Jul-28 01:32S 32°53' E 151°45'0 0.0
2015-Jul-28 00:32S 32°53' E 151°45'0 0.0
2015-Jul-27 23:32S 32°53' E 151°45'0 0.0
2015-Jul-27 22:32S 32°53' E 151°45'1 0.6
2015-Jul-27 21:33S 32°53' E 151°46'3 3.2
2015-Jul-27 20:33S 32°55' E 151°49'7 7.0
2015-Jul-27 19:33S 33°01' E 151°53'8 8.1
2015-Jul-27 18:33S 33°08' E 151°48'1110.3
2015-Jul-27 17:30S 33°18' E 151°41'2 0.0
2015-Jul-25 18:27S 33°18' E 151°39'0 0.0
2015-Jul-25 16:06S 33°18' E 151°39'0 0.0
2015-Jul-25 15:06S 33°18' E 151°39'0 0.0
2015-Jul-25 12:27S 33°18' E 151°39'0 0.0
2015-Jul-25 11:33S 33°18' E 151°39'0 0.0
2015-Jul-25 10:27S 33°18' E 151°39'0 0.0
2015-Jul-25 09:27S 33°18' E 151°39'0 0.0
2015-Jul-24 18:21S 33°18' E 151°39'0 0.1
2015-Jul-24 17:18S 33°18' E 151°39'0 0.0
2015-Jul-24 15:21S 33°18' E 151°39'0 0.0
2015-Jul-24 14:33S 33°18' E 151°39'0 0.0
2015-Jul-24 13:33S 33°18' E 151°39'0 0.0
2015-Jul-24 12:30S 33°18' E 151°39'0 0.0
2015-Jul-24 11:27S 33°18' E 151°39'0 0.0
2015-Jul-24 10:33S 33°18' E 151°39'0 0.1
2015-Jul-24 09:33S 33°18' E 151°39'0 0.0
2015-Jul-24 05:21S 33°18' E 151°39'0 0.0
2015-Jul-24 03:09S 33°18' E 151°39'0 0.0
2015-Jul-24 01:27S 33°18' E 151°39'0 0.0
2015-Jul-24 00:30S 33°18' E 151°39'0 0.1
2015-Jul-23 23:33S 33°18' E 151°39'0 0.1
2015-Jul-23 22:33S 33°18' E 151°39'0 0.0
2015-Jul-23 02:15S 33°18' E 151°39'0 0.0
2015-Jul-23 00:33S 33°18' E 151°39'0 0.0
2015-Jul-22 23:33S 33°18' E 151°39'0 0.0
2015-Jul-22 22:21S 33°18' E 151°39'0 0.1
2015-Jul-22 21:33S 33°18' E 151°39'0 0.0
2015-Jul-22 20:33S 33°18' E 151°39'0 0.0
2015-Jul-22 19:33S 33°18' E 151°39'0 0.1
2015-Jul-22 18:33S 33°18' E 151°39'0 0.0
2015-Jul-22 17:33S 33°18' E 151°39'0 0.1
2015-Jul-22 16:33S 33°18' E 151°39'0 0.0
2015-Jul-22 15:33S 33°18' E 151°39'0 0.1
2015-Jul-22 14:33S 33°18' E 151°39'0 0.0
2015-Jul-22 13:15S 33°18' E 151°39'0 0.0
2015-Jul-22 12:33S 33°18' E 151°39'0 0.0
2015-Jul-22 08:21S 33°18' E 151°39'0 0.0
2015-Jul-22 02:21S 33°18' E 151°39'0 0.0
2015-Jul-22 01:21S 33°18' E 151°39'0 0.0
2015-Jul-21 23:21S 33°18' E 151°39'0 0.0
2015-Jul-21 22:33S 33°18' E 151°39'0 0.0
2015-Jul-21 21:24S 33°18' E 151°39'0 0.0
2015-Jul-21 03:27S 33°18' E 151°39'15 7.9
2015-Jul-21 01:33S 33°16' E 151°57'5 5.0
2015-Jul-21 00:32S 33°16' E 152°03'1 0.8
2015-Jul-20 23:32S 33°16' E 152°04'1 0.7
2015-Jul-20 22:32S 33°16' E 152°05'  

Dump ship's entire track history